Time;durP1;ratioP1;P1;durP2;ratioP2;P2;SDS_P1;SDS_P2;PMS_P1;PMS_P2;Temp;Humidity;BMP_temperature;BMP_pressure;BME280_temperature;BME280_humidity;BME280_pressure;Samples;Min_cycle;Max_cycle;Signal;HPM_P1;HPM_P2
2024/02/08 06:01:54;;;;;;;2.10;1.10;;;;;;;;;;5364160;23;20499;-71
2024/02/08 06:04:34;;;;;;;0.93;0.83;;;;;;;;;;4956133;28;20408;-70
2024/02/08 06:07:05;;;;;;;0.93;0.80;;;;;;;;;;4956011;28;20409;-70
2024/02/08 06:12:16;;;;;;;5.30;2.20;;;;;;;;;;4956050;28;20444;-70
2024/02/08 06:14:42;;;;;;;1.20;1.20;;;;;;;;;;4956098;28;20548;-71
2024/02/08 06:17:11;;;;;;;1.27;1.10;;;;;;;;;;4953913;28;20409;-70
2024/02/08 06:19:50;;;;;;;1.47;1.17;;;;;;;;;;4955426;28;20432;-70
2024/02/08 06:22:20;;;;;;;1.30;1.20;;;;;;;;;;4955822;28;20456;-70
2024/02/08 06:24:58;;;;;;;3.90;1.50;;;;;;;;;;4955743;28;20440;-70
2024/02/08 06:27:33;;;;;;;1.20;1.10;;;;;;;;;;4955691;28;20540;-71
2024/02/08 06:30:07;;;;;;;1.13;1.03;;;;;;;;;;4955472;28;20432;-71
2024/02/08 06:32:34;;;;;;;1.97;1.20;;;;;;;;;;4955698;28;20499;-71
2024/02/08 06:35:11;;;;;;;1.07;0.90;;;;;;;;;;4955651;28;20491;-72
2024/02/08 06:37:44;;;;;;;1.10;1.00;;;;;;;;;;4955812;28;20385;-71
2024/02/08 06:40:24;;;;;;;1.00;0.90;;;;;;;;;;4955098;28;20433;-70
2024/02/08 07:37:26;;;;;;;2.60;1.00;;;;;;;;;;4953371;29;20420;-72
2024/02/08 07:40:02;;;;;;;1.03;1.00;;;;;;;;;;4954020;29;20408;-74
2024/02/08 07:42:41;;;;;;;1.70;1.60;;;;;;;;;;4953989;28;20495;-73
2024/02/08 07:45:12;;;;;;;1.97;1.33;;;;;;;;;;4954648;28;20405;-73
2024/02/08 07:47:39;;;;;;;1.20;1.13;;;;;;;;;;4954248;28;20421;-73
2024/02/08 07:50:05;;;;;;;1.53;1.17;;;;;;;;;;4953765;29;20417;-74
2024/02/08 07:52:38;;;;;;;2.30;1.17;;;;;;;;;;4954214;28;20441;-74
2024/02/08 07:57:58;;;;;;;3.10;1.50;;;;;;;;;;4933739;29;20506;-74
2024/02/08 08:03:08;;;;;;;1.27;1.20;;;;;;;;;;4951668;29;20978;-73
2024/02/08 08:05:44;;;;;;;2.80;1.47;;;;;;;;;;4944117;29;20421;-71
2024/02/08 08:08:27;;;;;;;1.20;1.10;;;;;;;;;;4935375;29;20893;-73
2024/02/08 08:11:02;;;;;;;1.60;1.10;;;;;;;;;;4945833;29;20460;-73
2024/02/08 08:13:50;;;;;;;2.70;1.27;;;;;;;;;;4953747;28;20417;-73
2024/02/08 08:18:58;;;;;;;1.53;1.43;;;;;;;;;;4953618;29;20455;-73
2024/02/08 08:21:29;;;;;;;5.93;1.40;;;;;;;;;;4953129;29;20491;-73
2024/02/08 08:24:03;;;;;;;1.90;1.00;;;;;;;;;;4944823;28;20417;-73
2024/02/08 08:26:44;;;;;;;1.10;1.03;;;;;;;;;;4941756;29;20405;-73
2024/02/08 08:29:16;;;;;;;2.00;1.13;;;;;;;;;;4950695;28;20468;-73
2024/02/08 08:31:52;;;;;;;1.00;0.90;;;;;;;;;;4943398;28;20468;-73
2024/02/08 08:36:58;;;;;;;1.30;1.20;;;;;;;;;;4944129;29;20789;-73
2024/02/08 08:42:16;;;;;;;1.17;1.10;;;;;;;;;;4956308;28;20855;-72
2024/02/08 08:44:48;;;;;;;1.10;1.00;;;;;;;;;;4949495;29;20780;-73
2024/02/08 08:47:14;;;;;;;1.03;0.93;;;;;;;;;;4946980;29;20421;-73
2024/02/08 08:49:42;;;;;;;2.00;1.00;;;;;;;;;;4945571;28;20465;-73
2024/02/08 08:52:08;;;;;;;1.10;1.00;;;;;;;;;;4950049;29;20475;-74
2024/02/08 08:54:36;;;;;;;1.40;1.10;;;;;;;;;;4957278;29;20425;-74
2024/02/08 08:57:12;;;;;;;1.70;1.13;;;;;;;;;;4956567;28;20511;-73
2024/02/08 08:59:42;;;;;;;1.80;1.50;;;;;;;;;;4957037;28;20580;-73
2024/02/08 09:02:08;;;;;;;1.40;1.20;;;;;;;;;;4945538;28;20515;-75
2024/02/08 09:04:35;;;;;;;1.37;1.10;;;;;;;;;;4956238;29;20423;-75
2024/02/08 09:07:10;;;;;;;1.83;1.03;;;;;;;;;;4951548;28;20409;-73
2024/02/08 09:09:55;;;;;;;2.50;1.37;;;;;;;;;;4937788;29;20885;-73
2024/02/08 09:12:28;;;;;;;3.40;1.10;;;;;;;;;;4950104;29;20523;-74
2024/02/08 09:15:19;;;;;;;1.50;1.40;;;;;;;;;;4954276;28;20549;-72
2024/02/08 09:17:51;;;;;;;1.20;1.10;;;;;;;;;;4945040;28;20425;-71
2024/02/08 09:20:20;;;;;;;1.20;1.10;;;;;;;;;;4954767;29;20903;-71
2024/02/08 09:22:57;;;;;;;1.07;0.90;;;;;;;;;;4956606;28;20475;-72
2024/02/08 09:25:23;;;;;;;1.27;1.13;;;;;;;;;;4950920;28;20503;-71
2024/02/08 09:27:55;;;;;;;3.10;1.40;;;;;;;;;;4956695;28;21051;-71
2024/02/08 09:30:52;;;;;;;1.67;1.00;;;;;;;;;;4956519;29;20496;-72
2024/02/08 09:33:30;;;;;;;1.57;1.20;;;;;;;;;;4957160;28;20863;-73
2024/02/08 09:35:56;;;;;;;1.13;1.03;;;;;;;;;;4957639;28;20409;-74
2024/02/08 09:38:22;;;;;;;5.83;1.10;;;;;;;;;;4956820;29;20448;-72
2024/02/08 09:40:51;;;;;;;1.20;1.10;;;;;;;;;;4946677;28;20487;-71
2024/02/08 09:43:17;;;;;;;1.10;1.00;;;;;;;;;;4952065;28;20518;-73
2024/02/08 09:45:58;;;;;;;1.77;1.43;;;;;;;;;;4955452;28;20416;-72
2024/02/08 09:48:36;;;;;;;1.17;1.07;;;;;;;;;;4952685;28;20416;-72
2024/02/08 09:51:11;;;;;;;1.77;0.90;;;;;;;;;;4939461;28;20778;-72
2024/02/08 09:53:40;;;;;;;2.50;1.17;;;;;;;;;;4949049;28;20425;-73
2024/02/08 09:56:25;;;;;;;1.70;0.90;;;;;;;;;;4942267;29;20468;-73
2024/02/08 09:59:07;;;;;;;2.60;1.60;;;;;;;;;;4955619;28;20475;-70
2024/02/08 10:01:43;;;;;;;1.30;1.00;;;;;;;;;;4949382;29;20498;-71
2024/02/08 10:04:16;;;;;;;2.73;1.30;;;;;;;;;;4952333;28;20423;-71
2024/02/08 10:06:45;;;;;;;2.23;1.20;;;;;;;;;;4955508;28;20488;-71
2024/02/08 10:12:06;;;;;;;1.57;1.03;;;;;;;;;;4944502;29;20440;-73
2024/02/08 10:14:33;;;;;;;2.20;1.07;;;;;;;;;;4936820;29;20422;-72
2024/02/08 10:17:24;;;;;;;1.37;1.00;;;;;;;;;;4945662;29;20409;-72
2024/02/08 10:22:57;;;;;;;1.53;1.33;;;;;;;;;;4959106;29;20882;-71
2024/02/08 10:28:09;;;;;;;1.50;0.90;;;;;;;;;;4958762;29;20508;-71
2024/02/08 10:30:36;;;;;;;1.10;1.00;;;;;;;;;;4959151;28;20528;-71
2024/02/08 10:33:04;;;;;;;4.00;1.00;;;;;;;;;;4957926;28;20420;-71
2024/02/08 10:35:39;;;;;;;1.00;0.90;;;;;;;;;;4956087;28;20417;-72
2024/02/08 10:38:14;;;;;;;1.00;0.90;;;;;;;;;;4955426;28;20416;-73
2024/02/08 10:40:46;;;;;;;1.60;1.10;;;;;;;;;;4955190;28;20551;-73
2024/02/08 10:43:24;;;;;;;1.93;1.20;;;;;;;;;;4955056;28;20975;-72
2024/02/08 10:45:53;;;;;;;1.20;1.10;;;;;;;;;;4955170;28;20409;-72
2024/02/08 10:48:23;;;;;;;3.50;1.80;;;;;;;;;;4955285;28;20516;-71
2024/02/08 10:50:50;;;;;;;3.17;1.43;;;;;;;;;;4954853;28;20513;-72
2024/02/08 10:53:43;;;;;;;3.77;1.10;;;;;;;;;;4953441;29;20412;-74
2024/02/08 10:56:14;;;;;;;1.03;0.93;;;;;;;;;;4938676;29;20453;-75
2024/02/08 10:58:55;;;;;;;1.80;1.10;;;;;;;;;;4941931;29;20438;-74
2024/02/08 11:01:37;;;;;;;1.43;1.07;;;;;;;;;;4938424;29;20532;-77
2024/02/08 11:04:20;;;;;;;2.10;1.40;;;;;;;;;;4937378;29;20422;-75
2024/02/08 11:07:06;;;;;;;2.30;1.50;;;;;;;;;;4949571;29;20767;-76
2024/02/08 11:09:32;;;;;;;4.40;1.50;;;;;;;;;;4938294;28;20957;-74
2024/02/08 11:12:03;;;;;;;1.60;1.10;;;;;;;;;;4954628;29;20444;-73
2024/02/08 11:14:32;;;;;;;1.83;1.40;;;;;;;;;;4955339;28;20469;-74
2024/02/08 11:17:03;;;;;;;2.50;1.50;;;;;;;;;;4951775;28;20432;-74
2024/02/08 11:19:34;;;;;;;2.80;1.57;;;;;;;;;;4940863;28;20449;-74
2024/02/08 11:22:18;;;;;;;1.97;1.53;;;;;;;;;;4933175;29;20465;-74
2024/02/08 11:24:57;;;;;;;1.10;1.00;;;;;;;;;;4936658;29;20414;-74
2024/02/08 11:27:29;;;;;;;2.67;1.40;;;;;;;;;;4954122;29;20448;-74
2024/02/08 11:29:57;;;;;;;2.10;1.63;;;;;;;;;;4955599;29;20476;-74
2024/02/08 11:32:24;;;;;;;2.47;1.40;;;;;;;;;;4955360;28;20429;-75
2024/02/08 11:35:00;;;;;;;1.07;0.97;;;;;;;;;;4956315;28;20420;-74
2024/02/08 11:37:30;;;;;;;2.23;0.83;;;;;;;;;;4955398;28;20515;-74
2024/02/08 11:40:00;;;;;;;1.60;1.10;;;;;;;;;;4955384;28;20447;-74
2024/02/08 11:42:31;;;;;;;1.60;1.50;;;;;;;;;;4955508;28;20500;-75
2024/02/08 11:45:00;;;;;;;1.10;1.00;;;;;;;;;;4955248;29;20419;-74
2024/02/08 11:47:26;;;;;;;2.43;1.47;;;;;;;;;;4955868;28;20812;-74
2024/02/08 11:49:53;;;;;;;1.80;1.37;;;;;;;;;;4954456;29;20888;-74
2024/02/08 11:52:19;;;;;;;1.57;1.37;;;;;;;;;;4955037;28;20447;-75
2024/02/08 11:54:46;;;;;;;2.10;1.00;;;;;;;;;;4954421;29;20942;-74
2024/02/08 11:57:13;;;;;;;1.03;0.90;;;;;;;;;;4954166;28;20421;-74
2024/02/08 11:59:39;;;;;;;1.40;1.00;;;;;;;;;;4954547;28;20922;-74
2024/02/08 12:02:08;;;;;;;3.13;1.10;;;;;;;;;;4954558;28;20472;-75
2024/02/08 12:04:35;;;;;;;1.40;0.90;;;;;;;;;;4954183;29;20427;-74
2024/02/08 12:07:04;;;;;;;2.37;1.00;;;;;;;;;;4955293;29;20413;-74
2024/02/08 12:09:31;;;;;;;4.33;1.10;;;;;;;;;;4955630;28;20409;-74
2024/02/08 12:11:57;;;;;;;1.80;1.20;;;;;;;;;;4955536;28;20445;-74
2024/02/08 12:14:27;;;;;;;1.70;1.20;;;;;;;;;;4955200;29;20475;-74
2024/02/08 12:16:57;;;;;;;2.87;1.60;;;;;;;;;;4955439;29;20413;-74
2024/02/08 12:19:24;;;;;;;2.00;1.90;;;;;;;;;;4955079;28;20829;-74
2024/02/08 12:21:56;;;;;;;3.47;1.50;;;;;;;;;;4954246;28;20460;-74
2024/02/08 12:24:23;;;;;;;2.07;1.47;;;;;;;;;;4953830;29;20412;-75
2024/02/08 12:26:53;;;;;;;5.33;2.27;;;;;;;;;;4953948;28;20500;-75
2024/02/08 12:29:20;;;;;;;9.33;2.10;;;;;;;;;;4953271;28;20803;-75
2024/02/08 12:31:47;;;;;;;7.43;1.43;;;;;;;;;;4953866;29;20436;-75
2024/02/08 12:34:15;;;;;;;6.30;1.73;;;;;;;;;;4954764;28;20512;-74
2024/02/08 12:36:44;;;;;;;2.10;1.43;;;;;;;;;;4954516;29;20416;-74
2024/02/08 12:39:17;;;;;;;8.67;2.20;;;;;;;;;;4954208;28;20423;-75
2024/02/08 12:41:46;;;;;;;1.93;1.60;;;;;;;;;;4953989;29;20464;-74
2024/02/08 12:44:15;;;;;;;8.63;1.50;;;;;;;;;;4953963;29;20408;-75
2024/02/08 12:46:42;;;;;;;4.57;1.40;;;;;;;;;;4953229;29;20444;-74
2024/02/08 12:49:08;;;;;;;4.87;1.70;;;;;;;;;;4953852;28;20475;-75
2024/02/08 12:51:37;;;;;;;8.00;1.90;;;;;;;;;;4953807;29;20460;-75
2024/02/08 12:54:07;;;;;;;6.60;1.83;;;;;;;;;;4952384;29;20503;-75
2024/02/08 12:56:36;;;;;;;6.57;1.70;;;;;;;;;;4953565;28;20783;-75
2024/02/08 12:59:03;;;;;;;4.73;1.60;;;;;;;;;;4953359;28;20919;-75
2024/02/08 13:01:38;;;;;;;7.77;1.60;;;;;;;;;;4954484;29;20460;-75
2024/02/08 13:04:05;;;;;;;3.40;1.77;;;;;;;;;;4953913;28;20499;-75
2024/02/08 13:06:31;;;;;;;7.97;2.37;;;;;;;;;;4953562;28;20488;-75
2024/02/08 13:09:25;;;;;;;5.93;1.70;;;;;;;;;;4953312;29;20507;-75
2024/02/08 13:11:51;;;;;;;12.13;2.37;;;;;;;;;;4953696;28;20433;-75
2024/02/08 13:14:20;;;;;;;9.00;2.50;;;;;;;;;;4953534;29;20430;-74
2024/02/08 13:16:47;;;;;;;11.17;3.23;;;;;;;;;;4952219;29;20459;-74
2024/02/08 13:19:19;;;;;;;11.50;2.13;;;;;;;;;;4953201;28;20417;-74
2024/02/08 13:21:45;;;;;;;8.27;2.30;;;;;;;;;;4953060;28;20816;-74
2024/02/08 13:24:11;;;;;;;4.10;2.03;;;;;;;;;;4953373;29;20590;-74
2024/02/08 13:26:37;;;;;;;6.50;2.57;;;;;;;;;;4953428;28;20440;-74
2024/02/08 13:29:03;;;;;;;14.03;2.80;;;;;;;;;;4955404;29;20431;-74
2024/02/08 13:31:29;;;;;;;10.27;3.50;;;;;;;;;;4956897;29;20483;-74
2024/02/08 13:33:55;;;;;;;9.70;2.47;;;;;;;;;;4957180;29;20409;-74
2024/02/08 13:36:25;;;;;;;15.93;3.13;;;;;;;;;;4957217;29;20417;-74
2024/02/08 13:38:51;;;;;;;17.70;4.40;;;;;;;;;;4956555;28;20404;-74
2024/02/08 13:41:17;;;;;;;18.07;3.57;;;;;;;;;;4956059;28;20429;-74
2024/02/08 13:43:46;;;;;;;8.43;3.20;;;;;;;;;;4956331;29;20412;-74
2024/02/08 13:46:13;;;;;;;12.00;3.07;;;;;;;;;;4956534;28;20420;-75
2024/02/08 13:48:39;;;;;;;8.70;2.37;;;;;;;;;;4956760;28;20409;-75
2024/02/08 13:51:08;;;;;;;16.17;3.50;;;;;;;;;;4955959;29;20879;-75
2024/02/08 13:53:37;;;;;;;11.07;3.60;;;;;;;;;;4956285;29;20463;-74
2024/02/08 13:56:05;;;;;;;11.10;4.30;;;;;;;;;;4956174;29;20436;-74
2024/02/08 13:58:35;;;;;;;13.93;3.10;;;;;;;;;;4956179;28;20979;-74
2024/02/08 14:01:02;;;;;;;9.90;3.03;;;;;;;;;;4954603;29;20460;-75
2024/02/08 14:03:31;;;;;;;14.37;3.57;;;;;;;;;;4956048;29;20622;-74
2024/02/08 14:05:59;;;;;;;14.10;4.13;;;;;;;;;;4956287;29;20767;-74
2024/02/08 14:08:27;;;;;;;16.50;4.17;;;;;;;;;;4956055;28;20440;-74
2024/02/08 14:10:54;;;;;;;10.27;3.70;;;;;;;;;;4954636;29;20452;-74
2024/02/08 14:13:28;;;;;;;12.80;3.60;;;;;;;;;;4955990;29;20413;-74
2024/02/08 14:15:57;;;;;;;12.10;4.50;;;;;;;;;;4956247;28;20952;-74
2024/02/08 14:18:23;;;;;;;13.00;3.83;;;;;;;;;;4971132;28;20408;-73
2024/02/08 14:21:00;;;;;;;11.27;3.60;;;;;;;;;;4956465;29;20439;-74
2024/02/08 14:23:30;;;;;;;19.13;4.47;;;;;;;;;;4956067;28;20475;-74
2024/02/08 14:26:33;;;;;;;11.10;3.53;;;;;;;;;;4955926;28;20413;-74
2024/02/08 14:28:55;;;;;;;12.50;3.33;;;;;;;;;;4953500;29;20440;-73
2024/02/08 14:31:21;;;;;;;16.13;3.80;;;;;;;;;;4966987;28;20771;-74
2024/02/08 14:33:47;;;;;;;12.57;4.07;;;;;;;;;;4956432;29;20419;-74
2024/02/08 14:36:14;;;;;;;18.63;4.60;;;;;;;;;;4955547;29;20504;-74
2024/02/08 14:38:40;;;;;;;18.97;5.30;;;;;;;;;;4955209;28;20424;-74
2024/02/08 14:41:07;;;;;;;12.10;3.80;;;;;;;;;;4955976;29;20440;-74
2024/02/08 14:43:33;;;;;;;11.93;3.83;;;;;;;;;;4963838;29;20515;-74
2024/02/08 14:46:00;;;;;;;19.73;4.30;;;;;;;;;;4957416;29;20472;-74
2024/02/08 14:48:37;;;;;;;21.17;4.40;;;;;;;;;;4955732;29;20449;-73
2024/02/08 14:51:29;;;;;;;16.63;4.23;;;;;;;;;;4955594;28;20441;-74
2024/02/08 14:53:58;;;;;;;30.77;4.10;;;;;;;;;;4955005;29;20423;-74
2024/02/08 14:56:24;;;;;;;16.63;4.27;;;;;;;;;;4955282;29;20813;-73
2024/02/08 14:58:56;;;;;;;19.93;4.30;;;;;;;;;;4955850;29;20420;-74
2024/02/08 15:01:38;;;;;;;22.33;4.47;;;;;;;;;;4955321;29;20448;-73
2024/02/08 15:04:15;;;;;;;18.77;3.90;;;;;;;;;;4955681;28;20419;-74
2024/02/08 15:06:42;;;;;;;27.33;5.63;;;;;;;;;;4954878;28;20499;-74
2024/02/08 15:12:09;;;;;;;19.20;5.57;;;;;;;;;;4955087;29;20520;-73
2024/02/08 15:14:35;;;;;;;15.87;4.10;;;;;;;;;;4955040;28;20417;-73
2024/02/08 15:17:08;;;;;;;22.97;4.63;;;;;;;;;;4954941;29;20413;-73
2024/02/08 15:19:46;;;;;;;14.53;4.10;;;;;;;;;;4954603;29;20516;-73
2024/02/08 15:22:35;;;;;;;12.23;3.87;;;;;;;;;;4954367;29;20874;-74
2024/02/08 15:25:04;;;;;;;15.50;5.27;;;;;;;;;;4954371;28;20409;-74
2024/02/08 15:27:54;;;;;;;21.73;4.80;;;;;;;;;;4954881;29;20464;-73
2024/02/08 15:30:22;;;;;;;23.37;5.13;;;;;;;;;;4954030;28;20433;-74
2024/02/08 15:35:35;;;;;;;10.00;4.17;;;;;;;;;;4954984;29;20413;-74
2024/02/08 15:40:47;;;;;;;29.70;5.03;;;;;;;;;;4954138;29;20943;-74
2024/02/08 15:43:16;;;;;;;19.37;4.70;;;;;;;;;;4954189;28;20513;-74
2024/02/08 15:45:52;;;;;;;30.10;5.10;;;;;;;;;;4953990;29;20507;-74
2024/02/08 15:48:26;;;;;;;25.20;7.17;;;;;;;;;;4954258;28;20437;-73
2024/02/08 15:50:52;;;;;;;13.67;5.80;;;;;;;;;;4953289;28;20443;-73
2024/02/08 15:53:19;;;;;;;23.97;5.47;;;;;;;;;;4954297;29;20499;-73
2024/02/08 15:55:46;;;;;;;24.20;5.87;;;;;;;;;;4954048;28;20455;-73
2024/02/08 15:58:25;;;;;;;16.10;4.73;;;;;;;;;;4954366;28;20413;-74
2024/02/08 16:03:40;;;;;;;22.93;5.20;;;;;;;;;;4953924;29;20519;-73
2024/02/08 16:08:59;;;;;;;16.93;4.10;;;;;;;;;;4953856;29;20420;-74
2024/02/08 16:11:29;;;;;;;30.03;5.40;;;;;;;;;;4954005;28;20433;-74
2024/02/08 16:14:15;;;;;;;27.43;6.07;;;;;;;;;;4953998;28;20408;-74
2024/02/08 16:16:50;;;;;;;16.40;5.17;;;;;;;;;;4953883;28;20477;-74
2024/02/08 16:19:39;;;;;;;38.87;5.30;;;;;;;;;;4953972;28;20424;-74
2024/02/08 16:22:19;;;;;;;17.23;5.90;;;;;;;;;;4954004;28;20551;-74
2024/02/08 16:24:49;;;;;;;12.80;4.70;;;;;;;;;;4954236;28;20409;-74
2024/02/08 16:27:15;;;;;;;17.87;5.20;;;;;;;;;;4953665;28;20433;-74
2024/02/08 16:29:56;;;;;;;19.40;5.50;;;;;;;;;;4953476;28;20412;-75
2024/02/08 16:32:29;;;;;;;26.53;5.40;;;;;;;;;;4953911;28;20578;-73
2024/02/08 16:35:00;;;;;;;18.37;5.30;;;;;;;;;;4954501;28;20444;-73
2024/02/08 16:37:42;;;;;;;17.93;4.70;;;;;;;;;;4953531;28;20405;-75
2024/02/08 16:40:16;;;;;;;30.17;4.80;;;;;;;;;;4953585;28;20413;-73
2024/02/08 16:42:55;;;;;;;29.60;5.80;;;;;;;;;;4953551;28;20478;-73
2024/02/08 16:45:33;;;;;;;21.47;5.70;;;;;;;;;;4953439;28;20433;-73
2024/02/08 16:48:08;;;;;;;28.60;6.90;;;;;;;;;;4953590;28;20385;-73
2024/02/08 16:50:44;;;;;;;20.93;5.60;;;;;;;;;;4953304;28;20483;-73
2024/02/08 16:53:14;;;;;;;27.00;5.83;;;;;;;;;;4953414;28;20500;-73
2024/02/08 16:55:46;;;;;;;26.50;5.30;;;;;;;;;;4953574;28;20488;-73
2024/02/08 16:58:32;;;;;;;16.90;4.87;;;;;;;;;;4953508;28;20411;-73
2024/02/08 17:01:05;;;;;;;25.10;6.07;;;;;;;;;;4953114;28;20448;-73
2024/02/08 17:03:50;;;;;;;19.57;6.20;;;;;;;;;;4956811;28;20452;-73
2024/02/08 17:06:17;;;;;;;16.90;5.33;;;;;;;;;;4957223;28;20864;-73
2024/02/08 17:11:40;;;;;;;25.57;4.80;;;;;;;;;;4963412;29;20767;-74
2024/02/08 17:14:17;;;;;;;15.70;5.20;;;;;;;;;;4972429;28;20443;-73
2024/02/08 17:16:45;;;;;;;24.80;5.20;;;;;;;;;;4973408;28;20392;-73
2024/02/08 17:19:46;;;;;;;32.37;5.80;;;;;;;;;;4973562;28;20495;-73
2024/02/08 17:27:49;;;;;;;33.13;5.40;;;;;;;;;;4957000;29;20408;-74
2024/02/08 17:30:25;;;;;;;15.23;7.07;;;;;;;;;;4956352;28;20436;-74
2024/02/08 17:32:53;;;;;;;27.53;6.47;;;;;;;;;;4956662;28;20511;-74
2024/02/08 17:35:21;;;;;;;23.03;6.27;;;;;;;;;;4956501;28;21031;-74
2024/02/08 17:37:49;;;;;;;35.57;8.20;;;;;;;;;;4957055;28;20427;-75
2024/02/08 17:40:19;;;;;;;33.33;6.83;;;;;;;;;;4956678;29;20420;-74
2024/02/08 17:42:49;;;;;;;22.83;6.57;;;;;;;;;;4956388;29;21018;-74
2024/02/08 17:45:16;;;;;;;32.67;7.10;;;;;;;;;;4956678;28;20969;-74
2024/02/08 17:47:42;;;;;;;33.53;7.97;;;;;;;;;;4956440;28;20899;-74
2024/02/08 17:50:13;;;;;;;30.33;8.50;;;;;;;;;;4954839;29;20453;-74
2024/02/08 17:52:46;;;;;;;28.87;7.30;;;;;;;;;;4956415;28;20421;-74
2024/02/08 17:55:15;;;;;;;22.27;7.00;;;;;;;;;;4956094;28;20427;-74
2024/02/08 17:57:41;;;;;;;32.00;10.20;;;;;;;;;;4956092;28;20492;-74
2024/02/08 18:00:12;;;;;;;33.07;7.97;;;;;;;;;;4955929;28;20512;-74
2024/02/08 18:02:38;;;;;;;40.87;9.30;;;;;;;;;;4956133;28;20468;-74
2024/02/08 18:05:08;;;;;;;31.63;7.83;;;;;;;;;;4955924;28;20816;-74
2024/02/08 18:07:36;;;;;;;27.23;7.70;;;;;;;;;;4956357;28;20409;-74
2024/02/08 18:10:16;;;;;;;27.97;7.27;;;;;;;;;;4955961;28;20419;-74
2024/02/08 18:12:42;;;;;;;20.13;6.00;;;;;;;;;;4956187;28;20486;-74
2024/02/08 18:17:44;;;;;;;28.33;8.00;;;;;;;;;;4973505;28;20491;-75
2024/02/08 18:20:14;;;;;;;27.23;8.93;;;;;;;;;;4974400;28;20577;-75
2024/02/08 18:22:41;;;;;;;25.50;7.80;;;;;;;;;;4975388;28;20459;-75
2024/02/08 18:25:07;;;;;;;27.07;9.17;;;;;;;;;;4971591;28;20433;-74
2024/02/08 18:27:33;;;;;;;23.83;8.07;;;;;;;;;;4955972;29;20401;-75
2024/02/08 18:30:00;;;;;;;29.70;8.00;;;;;;;;;;4956057;29;20416;-74
2024/02/08 18:32:29;;;;;;;26.37;6.60;;;;;;;;;;4956332;28;20907;-75
2024/02/08 18:34:58;;;;;;;27.33;7.97;;;;;;;;;;4956306;28;20440;-76
2024/02/08 18:37:25;;;;;;;28.83;7.30;;;;;;;;;;4954595;29;20425;-74
2024/02/08 18:40:06;;;;;;;21.17;6.40;;;;;;;;;;4955966;29;20413;-74
2024/02/08 18:42:32;;;;;;;24.60;5.23;;;;;;;;;;4956003;28;20443;-75
2024/02/08 18:45:06;;;;;;;17.80;5.87;;;;;;;;;;4955874;28;20409;-75
2024/02/08 18:47:33;;;;;;;23.20;5.70;;;;;;;;;;4955758;28;20409;-75
2024/02/08 18:50:06;;;;;;;24.10;7.43;;;;;;;;;;4956208;29;20412;-74
2024/02/08 18:52:33;;;;;;;16.00;5.87;;;;;;;;;;4956538;28;20416;-74
2024/02/08 18:54:59;;;;;;;19.03;5.63;;;;;;;;;;4956089;28;20404;-75
2024/02/08 18:57:25;;;;;;;21.13;6.33;;;;;;;;;;4955731;29;20904;-75
2024/02/08 18:59:52;;;;;;;21.80;6.03;;;;;;;;;;4953879;29;20483;-76
2024/02/08 19:02:24;;;;;;;16.63;5.57;;;;;;;;;;4955765;29;20471;-74
2024/02/08 19:04:58;;;;;;;24.17;7.20;;;;;;;;;;4955488;28;20448;-76
2024/02/08 19:07:25;;;;;;;34.37;7.27;;;;;;;;;;4955486;28;20411;-75
2024/02/08 19:09:52;;;;;;;25.03;8.10;;;;;;;;;;4955395;28;20828;-75
2024/02/08 19:12:18;;;;;;;32.03;7.87;;;;;;;;;;4954251;29;20428;-75
2024/02/08 19:14:44;;;;;;;23.33;7.07;;;;;;;;;;4955705;28;20459;-74
2024/02/08 19:17:13;;;;;;;24.10;5.80;;;;;;;;;;4954120;29;20498;-75
2024/02/08 19:19:40;;;;;;;21.37;7.40;;;;;;;;;;4955600;28;20804;-77
2024/02/08 19:22:12;;;;;;;28.80;8.67;;;;;;;;;;4955684;28;20460;-76
2024/02/08 19:24:38;;;;;;;29.17;8.07;;;;;;;;;;4954274;28;20425;-75
2024/02/08 19:27:05;;;;;;;30.27;8.30;;;;;;;;;;4955429;28;20928;-75
2024/02/08 19:29:32;;;;;;;23.90;6.40;;;;;;;;;;4955214;28;20405;-75
2024/02/08 19:31:58;;;;;;;28.93;8.00;;;;;;;;;;4955380;28;20432;-76
2024/02/08 19:34:28;;;;;;;25.27;8.33;;;;;;;;;;4964068;29;20409;-76
2024/02/08 19:36:58;;;;;;;20.60;7.33;;;;;;;;;;4955409;28;20440;-76
2024/02/08 19:41:56;;;;;;;19.93;5.63;;;;;;;;;;4955898;29;20469;-76
2024/02/08 19:44:25;;;;;;;25.63;5.63;;;;;;;;;;4956006;29;20428;-77
2024/02/08 19:46:54;;;;;;;22.17;5.63;;;;;;;;;;4955864;28;20500;-76
2024/02/08 19:49:27;;;;;;;17.93;6.00;;;;;;;;;;4955737;29;20444;-76
2024/02/08 19:51:59;;;;;;;23.60;5.97;;;;;;;;;;4963735;29;20436;-77
2024/02/08 19:54:37;;;;;;;17.57;6.20;;;;;;;;;;4960515;28;20413;-75
2024/02/08 19:57:05;;;;;;;14.33;5.03;;;;;;;;;;4967100;28;20452;-75
2024/02/08 19:59:37;;;;;;;29.70;6.53;;;;;;;;;;4969159;28;20448;-76
2024/02/08 20:02:03;;;;;;;22.27;5.97;;;;;;;;;;4962086;28;20480;-76
2024/02/08 20:04:37;;;;;;;28.47;6.80;;;;;;;;;;4962925;29;20412;-77
2024/02/08 20:07:10;;;;;;;29.97;6.47;;;;;;;;;;4965206;28;20847;-76
2024/02/08 20:09:42;;;;;;;22.37;5.80;;;;;;;;;;4962467;28;20487;-75
2024/02/08 20:12:13;;;;;;;18.63;5.70;;;;;;;;;;4957765;28;20421;-76
2024/02/08 20:14:39;;;;;;;21.30;5.83;;;;;;;;;;4956049;28;20416;-76
2024/02/08 20:17:09;;;;;;;19.37;6.17;;;;;;;;;;4954745;29;20527;-77
2024/02/08 20:19:38;;;;;;;25.70;6.27;;;;;;;;;;4957505;28;20488;-76
2024/02/08 20:22:05;;;;;;;22.80;6.27;;;;;;;;;;4965840;28;20496;-77
2024/02/08 20:24:31;;;;;;;23.93;7.00;;;;;;;;;;4967341;28;20408;-76
2024/02/08 20:26:59;;;;;;;30.47;6.03;;;;;;;;;;4964862;28;20468;-76
2024/02/08 20:29:28;;;;;;;17.63;5.30;;;;;;;;;;4966889;28;20405;-76
2024/02/08 20:31:56;;;;;;;20.80;5.03;;;;;;;;;;4967049;28;20420;-76
2024/02/08 20:34:22;;;;;;;16.13;5.33;;;;;;;;;;4967134;28;20409;-77
2024/02/08 20:36:50;;;;;;;25.37;6.30;;;;;;;;;;4968432;28;20520;-75
2024/02/08 20:39:19;;;;;;;19.30;5.10;;;;;;;;;;4971784;29;20890;-75
2024/02/08 20:41:49;;;;;;;14.03;5.13;;;;;;;;;;4974864;29;20446;-75
2024/02/08 20:44:15;;;;;;;17.83;5.13;;;;;;;;;;4978560;28;20404;-78
2024/02/08 20:46:48;;;;;;;19.00;5.47;;;;;;;;;;4979268;28;20452;-77
2024/02/08 20:49:15;;;;;;;24.93;6.17;;;;;;;;;;4977161;28;20444;-76
2024/02/08 20:51:42;;;;;;;24.00;6.83;;;;;;;;;;4967049;28;20432;-75
2024/02/08 20:54:11;;;;;;;21.83;6.10;;;;;;;;;;4964904;28;20413;-76
2024/02/08 20:56:38;;;;;;;15.67;5.90;;;;;;;;;;4964724;28;20968;-75
2024/02/08 20:59:06;;;;;;;20.43;5.23;;;;;;;;;;4963590;29;20425;-75
2024/02/08 21:01:35;;;;;;;29.67;6.70;;;;;;;;;;4965786;28;20443;-76
2024/02/08 21:04:01;;;;;;;21.83;5.13;;;;;;;;;;4965499;28;20413;-75
2024/02/08 21:06:28;;;;;;;35.43;6.30;;;;;;;;;;4965076;28;20964;-76
2024/02/08 21:08:55;;;;;;;20.83;5.63;;;;;;;;;;4968354;28;20533;-76
2024/02/08 21:11:21;;;;;;;19.83;5.77;;;;;;;;;;4967633;28;20476;-75
2024/02/08 21:13:47;;;;;;;14.93;5.30;;;;;;;;;;4967289;29;20481;-76
2024/02/08 21:16:15;;;;;;;24.50;5.67;;;;;;;;;;4972779;28;20504;-76
2024/02/08 21:18:45;;;;;;;18.83;5.80;;;;;;;;;;4965333;28;20467;-76
2024/02/08 21:21:14;;;;;;;23.93;5.50;;;;;;;;;;4964709;28;20412;-76
2024/02/08 21:23:43;;;;;;;18.17;5.57;;;;;;;;;;4963119;29;20474;-75
2024/02/08 21:26:10;;;;;;;23.70;5.23;;;;;;;;;;4962052;28;20437;-75
2024/02/08 21:28:37;;;;;;;15.17;5.00;;;;;;;;;;4962084;29;20412;-76
2024/02/08 21:31:06;;;;;;;19.43;4.93;;;;;;;;;;4960168;28;20408;-76
2024/02/08 21:33:32;;;;;;;20.63;6.30;;;;;;;;;;4960806;28;20416;-76
2024/02/08 21:36:03;;;;;;;12.87;4.10;;;;;;;;;;4961603;28;20435;-76
2024/02/08 21:38:30;;;;;;;15.30;4.43;;;;;;;;;;4961986;28;20444;-75
2024/02/08 21:40:57;;;;;;;29.00;4.83;;;;;;;;;;4959534;29;20947;-75
2024/02/08 21:43:26;;;;;;;14.40;3.83;;;;;;;;;;4969323;28;20516;-75
2024/02/08 21:45:54;;;;;;;24.20;4.80;;;;;;;;;;4973661;28;20436;-76
2024/02/08 21:48:21;;;;;;;17.03;4.97;;;;;;;;;;4974779;28;20420;-75
2024/02/08 21:50:49;;;;;;;11.03;3.70;;;;;;;;;;4975701;28;20405;-76
2024/02/08 21:53:16;;;;;;;17.10;4.80;;;;;;;;;;4975344;28;20432;-75
2024/02/08 21:55:45;;;;;;;11.70;4.00;;;;;;;;;;4973549;28;20443;-76
2024/02/08 21:58:11;;;;;;;8.83;4.33;;;;;;;;;;4967419;29;20428;-76
2024/02/08 22:00:42;;;;;;;18.27;4.80;;;;;;;;;;4967198;29;20480;-77
2024/02/08 22:03:08;;;;;;;15.27;3.87;;;;;;;;;;4961609;29;20470;-76
2024/02/08 22:05:38;;;;;;;17.77;6.60;;;;;;;;;;4959042;28;20818;-76
2024/02/08 22:08:04;;;;;;;20.00;5.23;;;;;;;;;;4964152;29;20404;-75
2024/02/08 22:10:30;;;;;;;18.00;4.57;;;;;;;;;;4965476;29;20444;-75
2024/02/08 22:12:56;;;;;;;21.17;5.20;;;;;;;;;;4960854;29;20765;-75
2024/02/08 22:15:22;;;;;;;19.10;4.80;;;;;;;;;;4958926;28;20529;-76
2024/02/08 22:17:50;;;;;;;21.17;5.37;;;;;;;;;;4958390;29;20900;-75
2024/02/08 22:20:16;;;;;;;25.13;5.47;;;;;;;;;;4957178;28;20412;-75
2024/02/08 22:22:44;;;;;;;19.37;4.53;;;;;;;;;;4956735;29;20551;-76
2024/02/08 22:25:10;;;;;;;16.33;5.53;;;;;;;;;;4956758;28;20847;-75
2024/02/08 22:27:39;;;;;;;19.30;6.10;;;;;;;;;;4956936;29;20405;-75
2024/02/08 22:30:11;;;;;;;22.43;5.47;;;;;;;;;;4955504;29;20452;-75
2024/02/08 22:32:40;;;;;;;16.23;4.77;;;;;;;;;;4956956;29;20892;-76
2024/02/08 22:35:13;;;;;;;14.23;4.87;;;;;;;;;;4957400;28;20429;-75
2024/02/08 22:37:41;;;;;;;20.80;4.37;;;;;;;;;;4957220;29;20415;-75
2024/02/08 22:40:08;;;;;;;24.87;6.33;;;;;;;;;;4956715;28;20468;-77
2024/02/08 22:42:38;;;;;;;16.33;5.90;;;;;;;;;;4956293;29;20873;-75
2024/02/08 22:45:05;;;;;;;23.93;6.50;;;;;;;;;;4956150;28;20846;-75